Aérodrome :
LOGIN :

S'inscrire | Disclaimer

   EN    FR    IT 

 










Légende :    VFR   VFR Marginal   IFR   IFR Intensif   IFR Très Intensif
Visi : 
Plafond : 
>= 8 km
>= 3000ft
5 à 8 km
1000 à 3000 ft
1500m à 5 km
500 à 1000 ft
800 à 1500m
200 à 500 ft
< 800m
< 200 ft
Symboles :   Orages  Brouillard  Fortes neiges  Fortes précipitations  Vent > 20 kt
SIGMETs :   Divers  Orages  Givrage  Turbulence  Onde Orograph.  Cendres Volcan.






- Altitude de l'aérodrome : 2054 ft
- Code IATA : RRS


ENRO - Røros

DERNIER METAR :
  • 111950Z 12005KT 090V150 9999 -SN VV010 M08/M09 Q1001

METARs EXPIRÉS :
  • 111920Z 07005KT 9999 -SN VV010 M08/M09 Q1001
  • 111850Z 09008KT 9999 -SN BKN012 M08/M09 Q1001
  • 111820Z 10005KT 070V130 9999 -SN BKN010 M08/M10 Q1001
  • 111750Z 10006KT 9999 -SN VV010 M08/M10 Q1002
  • 111720Z 10006KT 9999 -SN VV010 M08/M10 Q1002

Prévision TAF périmée.



MET'MAP, la Météo Aéronautique d'un coup d'oeil ! - Copyright ORBIFLY Décembre 2007 - Disclaimer

ORBIFLY MET'MAP TEAM :

Programmation & Développement : Alexandra Zaïnal
Conception & Développement : Baudouin d'Aumeries
Co-Programmation & Développement : Marc-Olivier Méhu
Soutien technique & logistique : Manuel Goepfert

Contact : metmap@orbifly.com




SOURCES & CREDITS :

   NOAA